Axel Batshuayi

Chefscout - OH Leuven
9 Dez 2027
Donnerstag
Verarbeitung

Persönlichkeit

Anpassungsfähigkeit (7) Ehrgeiz (8) Kontroverse (17) Loyalität (4) Druck (7) Professionalität (6) Fairness (5) Temperament (13)

Profil

Trainerstil Demokratisch
Lizenz Kontinentale C
Entschlossenheit 11
Menschenführung 12
Motivation 9
Disziplin 12
Arbeitszufriedenheit
100%
Ermüdung
0%
Rolle Chefscout
Gehalt 17.6K p/W
Vertrag 14.03.2029

Leistung

Verhalten Gut
Trainingseffektivität
35%
Spielerentwicklung
35%
Verletzungsprävention
20%
Taktische Umsetzung
25%

Letzte Ereignisse

Nahm an einer Scouting-Besprechung teil jetzt
Empfahl ein Transferziel jetzt
Empfahl ein Transferziel jetzt
Empfahl ein Transferziel jetzt
Empfahl ein Transferziel 7T her
Empfahl ein Transferziel 7T her
Empfahl ein Transferziel 7T her
Nahm an einer Scouting-Besprechung teil 7T her

Aktuell beobachtet

143
Spieler Verein Status Fähigkeit Vertrauen Beobachtet Zuletzt beobachtet Letzte Stimme
Hosea Michael Remo Stars Aktiv 97 / 86 40% 1 03.09.2027 -
Latrell Aken Groningen Aktiv 115 / 117 40% 5 09.08.2027 -
Leonardo Mendicino Bari Verhandlung 112 / 131 40% 1 09.08.2027 -
Joel McGregor Swindon Town Aktiv 91 / 96 40% 2 02.08.2027 -
Daniel Dennis Ikorodu City Aktiv 90 / 98 40% 1 02.08.2027 -
Cheveyo Tsawa Club Brugge Aktiv 110 / 123 40% 8 01.06.2027 -
Sascha Britschgi Padova Aktiv 121 / 128 40% 4 01.06.2027 -
Dion Beljo Standard Liege Verhandlung 131 / 132 66% 1 01.06.2027 Befürworten
Khama Dolly Utrecht Verhandlung 123 / 124 67% 1 01.06.2027 Befürworten
Christ Inao Oulaï Fiorentina Aktiv 131 / 145 40% 5 28.05.2027 -
Dylan Lawlor Cardiff City Aktiv 123 / 120 40% 5 28.05.2027 Beobachten
Davide Bartesaghi AC Milan Aktiv 129 / 135 40% 4 27.05.2027 -
Finley McAllister Grimsby Town Aktiv 100 / 101 40% 2 27.05.2027 -
Christos Mouzakitis Hull City Aktiv 127 / 132 40% 9 25.05.2027 -
Ibrahim Maza Bayer Leverkusen Aktiv 136 / 144 40% 4 24.05.2027 -
Bernardo Lima Porto Aktiv 99 / 111 40% 1 24.05.2027 -
Daniel Vernattus Metalist Aktiv 83 / 91 40% 2 23.05.2027 -
Yussif Saidu Zaragoza Aktiv 115 / 121 40% 1 23.05.2027 -
Gonçalo Oliveira Benfica Aktiv 101 / 118 40% 4 21.05.2027 -
Jofre Torrents Ajax Aktiv 114 / 127 40% 5 20.05.2027 -
Darryl Bakola Padova Aktiv 107 / 116 40% 1 20.05.2027 -
Jan Bürger Gillingham Aktiv 118 / 116 40% 6 18.05.2027 -
Matías Gómez Granada Aktiv 121 / 114 40% 5 15.05.2027 -
Josh King Chelsea Aktiv 138 / 152 40% 10 14.05.2027 -
Pietro Reggiori Pro Patria Aktiv 84 / 95 40% 2 13.05.2027 -
Elie N'Gatta Sochaux Aktiv 99 / 95 40% 3 11.05.2027 -
Karim Coulibaly RC Strasbourg Aktiv 121 / 130 40% 6 10.05.2027 -
Ernie Weaver AFC Wimbledon Aktiv 114 / 112 40% 5 09.05.2027 -
Adam Bakoune Ospitaletto Aktiv 98 / 106 40% 1 08.05.2027 -
Keagan Tau Ajax Cape Town Aktiv 88 / 106 40% 3 03.05.2027 -
Kazunari Kita Real Sociedad Aktiv 93 / 106 40% 3 02.05.2027 -
Bohdan Budko AZ Aktiv 110 / 118 40% 1 28.04.2027 -
Fuzy Taylor Medeama Aktiv 82 / 83 40% 2 19.04.2027 -
Tiago Freitas Benfica Aktiv 117 / 115 40% 3 15.04.2027 -
Leandro Martins Benfica Aktiv 104 / 99 40% 2 06.04.2027 -
Percy Jali Free State Stars Aktiv 101 / 101 40% 4 03.04.2027 -
James Dornelly Peterborough United Aktiv 91 / 104 40% 2 03.04.2027 -
David Ozoh Derby County Aktiv 116 / 125 40% 4 01.04.2027 -
Mark Verkuijl Ajax Aktiv 117 / 114 40% 1 01.04.2027 -
Pape Diong Westerlo Aktiv 108 / 119 40% 2 30.03.2027 -
Zane Albarus Cambridge United Aktiv 97 / 104 40% 2 25.03.2027 -
Thijs Kraaijeveld Feyenoord Aktiv 121 / 126 40% 2 22.03.2027 -
Arsene Mekila Gazelle Garoua Aktiv 90 / 89 40% 2 22.03.2027 -
Richard Noël AS Nancy Aktiv 86 / 101 40% 1 18.03.2027 -
Mohamed Moussa Koïta Djoliba Aktiv 103 / 107 40% 2 17.03.2027 -
Martim Cunha Porto Aktiv 90 / 109 40% 1 14.03.2027 -
Frédérique Dawaï Cotonsport Garoua Aktiv 82 / 93 40% 1 13.03.2027 -
Ronwen Phiri Platinum Stars Aktiv 105 / 109 40% 3 12.03.2027 -
Cathal Heffernan Harrogate Town Aktiv 92 / 84 40% 1 06.03.2027 -
Caleb Yirenkyi Coventry City Aktiv 139 / 132 40% 2 05.03.2027 -
Keagan Phiri Platinum Stars Aktiv 90 / 108 40% 1 23.02.2027 -
Josh Smith Accrington Stanley Aktiv 86 / 89 40% 2 20.02.2027 -
Simphiwe Selepe Orlando Pirates Aktiv 120 / 122 40% 1 12.02.2027 -
Edwin Asamoah Berekum Chelsea Aktiv 76 / 93 40% 1 12.02.2027 -
Massien Ghaddari Utrecht Aktiv 100 / 106 40% 1 10.02.2027 -
Daan Dierckx Standard Liege Aktiv 119 / 120 51% 1 25.01.2027 -
Isaiah Jones Luton Town Aktiv 135 / 128 40% 2 18.01.2027 -
Cian Ashford Cardiff City Aktiv 129 / 120 40% 1 18.01.2027 -
Marcelo Allende Mamelodi Sundowns Aktiv 122 / 134 40% 1 12.01.2027 -
Jason Knight Bristol City Aktiv 124 / 127 40% 1 12.01.2027 -
Owen Lunt Crewe Alexandra Aktiv 87 / 106 40% 1 03.01.2027 -
Andreas Trimmel Red Bull Salzburg Aktiv 131 / 131 60% 1 01.01.2027 Befürworten
Amar Memić Casa Pia Verhandlung 127 / 128 62% 1 01.01.2027 Befürworten
Themba Ngcobo SuperSport United Aktiv 116 / 116 40% 4 31.12.2026 -
Myron van Brederode KV Mechelen Aktiv 124 / 129 40% 3 31.12.2026 -
Tommy Conway Middlesbrough Aktiv 119 / 128 40% 5 30.12.2026 -
Aune Heggebø West Bromwich Albion Aktiv 116 / 131 40% 2 29.12.2026 -
Toni Fruk KV Mechelen Aktiv 124 / 137 40% 1 28.12.2026 -
Robert Mizo Ashanti Gold Aktiv 99 / 100 40% 1 27.12.2026 -
Yousef Salech Cardiff City Aktiv 124 / 128 40% 3 25.12.2026 -
Morgan Whittaker Middlesbrough Aktiv 141 / 128 40% 3 25.12.2026 -
Tristan Degreef Anderlecht Verloren 133 / 122 40% 3 24.12.2026 -
Isa Sakamoto Westerlo Aktiv 119 / 118 40% 2 24.12.2026 -
Rafiu Durosinmi Racing Genk Aktiv 126 / 138 40% 5 23.12.2026 -
Giacomo Raspadori Atalanta Aktiv 136 / 138 40% 2 23.12.2026 -
Ruben van Bommel Ferencvaros Aktiv 117 / 142 40% 3 19.12.2026 -
Razvan Balasa Crvena Zvezda Aktiv 155 / 140 40% 4 19.12.2026 -
Mattia Felici Cagliari Aktiv 138 / 136 40% 1 16.12.2026 -
Jules Armand Kooh Dynamo Douala Aktiv 106 / 92 40% 1 16.12.2026 -
Iwan Morgan Grimsby Town Aktiv 98 / 119 40% 1 15.12.2026 -
Matisse Samoise KAA Gent Aktiv 133 / 121 40% 1 15.12.2026 -
Mathias Jørgensen Blackburn Rovers Aktiv 131 / 118 40% 1 14.12.2026 -
Derensili Sanches Fernandes Huddersfield Town Aktiv 123 / 116 40% 1 14.12.2026 -
Richard Koné Queens Park Rangers Aktiv 122 / 129 40% 1 13.12.2026 -
Etiosa Ighodaro Kaizer Chiefs Aktiv 118 / 112 40% 3 12.12.2026 -
Adnan Courtois KV Oostende Aktiv 152 / 127 40% 4 10.12.2026 -
Senny Mayulu Paris Saint-Germain Aktiv 133 / 153 40% 2 09.12.2026 -
Tshepang Moremi Orlando Pirates Aktiv 104 / 113 40% 2 09.12.2026 -
Tyreece Campbell Charlton Athletic Aktiv 125 / 126 40% 1 09.12.2026 -
Kwame Poku Queens Park Rangers Aktiv 110 / 128 40% 1 04.12.2026 -
Mees Rijks Bristol Rovers Aktiv 101 / 105 40% 1 02.12.2026 -
Ibrahim Cissoko Zwolle Aktiv 123 / 120 40% 3 01.12.2026 -
Tyrese Campbell Sheffield United Aktiv 135 / 132 40% 1 01.12.2026 -
Sorba Thomas Stoke City Aktiv 140 / 131 40% 1 01.12.2026 -
David Kalokoh Ajax Aktiv 128 / 124 40% 1 30.11.2026 -
Maksim Kireev KV Mechelen Aktiv 118 / 130 40% 1 30.11.2026 -
Jack Rudoni Coventry City Aktiv 143 / 139 40% 1 28.11.2026 -
Tom Cannon Sheffield United Aktiv 137 / 131 40% 2 26.11.2026 -
Ilyas Ansah Hull City Aktiv 131 / 140 40% 2 25.11.2026 -
Bojan Radulović Huddersfield Town Aktiv 113 / 116 40% 1 25.11.2026 -
Everton Bala Levski Aktiv 116 / 128 40% 1 24.11.2026 -
Zeki Amdouni Burnley Aktiv 129 / 130 40% 1 23.11.2026 -
Marezi Portsmouth Aktiv 106 / 128 40% 1 21.11.2026 -
Seedy Jatta Sturm Graz Aktiv 106 / 120 40% 1 20.11.2026 -
Matt O'Riley Brighton Aktiv 149 / 147 40% 1 20.11.2026 -
Thomas Claes Zulte Waregem Aktiv 104 / 113 40% 1 20.11.2026 -
Georginio Rutter Brighton Aktiv 148 / 146 40% 3 16.11.2026 -
Giovanni Haag Cardiff City Aktiv 128 / 113 40% 1 16.11.2026 -
Naoufal Bannis Vitesse Aktiv 116 / 106 40% 1 12.11.2026 -
Jeppe Erenbjerg Racing Genk Aktiv 125 / 118 40% 1 10.11.2026 -
Joe Gelhardt Hull City Aktiv 119 / 131 40% 1 08.11.2026 -
Aimé Omgba KAA Gent Aktiv 117 / 118 40% 1 07.11.2026 -
Alexander Díaz Deportivo Riestra Aktiv 125 / 122 40% 2 04.11.2026 -
Dejan Joveljić Seattle Sounders Aktiv 119 / 128 40% 1 03.11.2026 -
Rilind Nivokazi Sion Aktiv 125 / 122 40% 1 02.11.2026 -
Cameron Archer Southampton Aktiv 130 / 129 40% 1 28.10.2026 -
Mandla Mahlangu Ajax Cape Town Aktiv 96 / 99 40% 1 28.10.2026 -
Erison Kawasaki Frontale Aktiv 151 / 124 40% 1 24.10.2026 -
Manfred Ugalde Spartak Moscow Aktiv 112 / 127 40% 1 22.10.2026 -
Santiago Sala Güemes Aktiv 130 / 114 40% 1 22.10.2026 -
Louis Munteanu DC United Aktiv 108 / 120 40% 2 17.10.2026 -
Yannick Vanaken KV Oostende Aktiv 137 / 124 40% 1 11.10.2026 -
Jakob Napoleon Romsaas Charleroi Aktiv 114 / 131 40% 1 10.10.2026 -
Leonardo Campana New England Revolution Aktiv 110 / 135 40% 1 10.10.2026 -
Tomás Chancalay Minnesota United FC Aktiv 115 / 131 40% 2 06.10.2026 -
Agustín Módica Gimnasia y Esgrima Aktiv 114 / 129 40% 1 05.10.2026 -
Félix Lemaréchal Club Brugge Aktiv 138 / 137 40% 2 19.09.2026 -
João Gomes Aston Villa Aktiv 145 / 134 40% 1 19.09.2026 -
Ted Ku-DiPietro Colorado Rapids Aktiv 116 / 121 40% 1 16.09.2026 -
Thomas Van Den Keybus Westerlo Aktiv 111 / 111 40% 1 14.09.2026 -
Mardochée Nzita Charleroi Aktiv 110 / 120 40% 1 14.09.2026 -
Kelvin Yeboah Minnesota United FC Aktiv 148 / 131 40% 2 13.09.2026 -
Daan Heymans Racing Genk Aktiv 115 / 121 40% 1 13.09.2026 -
Adriano Bertaccini Anderlecht Aktiv 121 / 124 40% 1 12.09.2026 -
Bénie Traoré New York City Aktiv 115 / 114 40% 1 12.09.2026 -
Juan Manuel Sanabria Real Salt Lake Aktiv 123 / 113 40% 1 10.09.2026 -
Thomas van den Belt Twente Aktiv 122 / 114 40% 1 10.09.2026 -
David Da Costa Portland Timbers Aktiv 122 / 136 40% 1 09.09.2026 -
Riqui Puig LA Galaxy Aktiv 144 / 128 40% 1 08.09.2026 -
Rowan Besselink De Graafschap Aktiv 98 / 101 40% 1 25.08.2026 -
Philippe Ndinga Philadelphia Union Aktiv 120 / 132 40% 1 25.08.2026 -
Ethan Butera Ajax Aktiv 104 / 112 40% 1 17.08.2026 -
Amine Lachkar Willem II Aktiv 119 / 110 40% 1 01.08.2026 -